sensor_id;sensor_type;location;lat;lon;timestamp;P1;durP1;ratioP1;P2;durP2;ratioP2
20657;SDS011;10488;50.846;4.078;2022-12-18T00:01:56;52.23;;;25.10;;
20657;SDS011;10488;50.846;4.078;2022-12-18T00:04:23;50.67;;;25.13;;
20657;SDS011;10488;50.846;4.078;2022-12-18T00:06:51;54.40;;;25.27;;
20657;SDS011;10488;50.846;4.078;2022-12-18T00:09:17;59.10;;;27.17;;
20657;SDS011;10488;50.846;4.078;2022-12-18T00:11:43;60.20;;;27.93;;
20657;SDS011;10488;50.846;4.078;2022-12-18T00:14:10;63.03;;;28.13;;
20657;SDS011;10488;50.846;4.078;2022-12-18T00:16:37;57.57;;;27.23;;
20657;SDS011;10488;50.846;4.078;2022-12-18T00:19:03;56.53;;;27.27;;
20657;SDS011;10488;50.846;4.078;2022-12-18T00:21:30;49.73;;;25.97;;
20657;SDS011;10488;50.846;4.078;2022-12-18T00:23:57;59.53;;;25.80;;
20657;SDS011;10488;50.846;4.078;2022-12-18T00:26:25;58.43;;;26.30;;
20657;SDS011;10488;50.846;4.078;2022-12-18T00:28:52;56.07;;;26.10;;
20657;SDS011;10488;50.846;4.078;2022-12-18T00:31:19;49.53;;;24.87;;
20657;SDS011;10488;50.846;4.078;2022-12-18T00:33:47;57.57;;;25.83;;
20657;SDS011;10488;50.846;4.078;2022-12-18T00:36:14;57.10;;;26.27;;
20657;SDS011;10488;50.846;4.078;2022-12-18T00:38:42;61.43;;;26.83;;
20657;SDS011;10488;50.846;4.078;2022-12-18T00:41:08;61.80;;;26.17;;
20657;SDS011;10488;50.846;4.078;2022-12-18T00:43:36;55.70;;;24.17;;
20657;SDS011;10488;50.846;4.078;2022-12-18T00:46:02;53.57;;;26.20;;
20657;SDS011;10488;50.846;4.078;2022-12-18T00:48:28;53.17;;;25.27;;
20657;SDS011;10488;50.846;4.078;2022-12-18T00:50:54;52.70;;;24.40;;
20657;SDS011;10488;50.846;4.078;2022-12-18T00:53:20;57.13;;;25.80;;
20657;SDS011;10488;50.846;4.078;2022-12-18T00:55:45;57.07;;;25.90;;
20657;SDS011;10488;50.846;4.078;2022-12-18T00:58:12;63.60;;;28.37;;
20657;SDS011;10488;50.846;4.078;2022-12-18T01:00:40;64.17;;;28.17;;
20657;SDS011;10488;50.846;4.078;2022-12-18T01:03:06;60.50;;;27.73;;
20657;SDS011;10488;50.846;4.078;2022-12-18T01:05:32;57.50;;;28.27;;
20657;SDS011;10488;50.846;4.078;2022-12-18T01:07:58;55.10;;;25.83;;
20657;SDS011;10488;50.846;4.078;2022-12-18T01:10:25;57.27;;;27.30;;
20657;SDS011;10488;50.846;4.078;2022-12-18T01:12:51;56.70;;;27.37;;
20657;SDS011;10488;50.846;4.078;2022-12-18T01:15:17;65.03;;;27.57;;
20657;SDS011;10488;50.846;4.078;2022-12-18T01:17:43;51.53;;;27.33;;
20657;SDS011;10488;50.846;4.078;2022-12-18T01:20:09;56.50;;;28.07;;
20657;SDS011;10488;50.846;4.078;2022-12-18T01:22:36;58.70;;;28.40;;
20657;SDS011;10488;50.846;4.078;2022-12-18T01:25:02;58.07;;;27.33;;
20657;SDS011;10488;50.846;4.078;2022-12-18T01:27:29;55.87;;;26.63;;
20657;SDS011;10488;50.846;4.078;2022-12-18T01:29:55;58.20;;;26.83;;
20657;SDS011;10488;50.846;4.078;2022-12-18T01:32:20;53.10;;;26.37;;
20657;SDS011;10488;50.846;4.078;2022-12-18T01:34:47;50.63;;;26.50;;
20657;SDS011;10488;50.846;4.078;2022-12-18T01:37:12;49.27;;;26.43;;
20657;SDS011;10488;50.846;4.078;2022-12-18T01:39:38;54.10;;;27.70;;
20657;SDS011;10488;50.846;4.078;2022-12-18T01:42:05;52.27;;;26.53;;
20657;SDS011;10488;50.846;4.078;2022-12-18T01:50:13;62.37;;;26.47;;
20657;SDS011;10488;50.846;4.078;2022-12-18T01:52:48;56.73;;;26.50;;
20657;SDS011;10488;50.846;4.078;2022-12-18T01:55:19;54.60;;;26.90;;
20657;SDS011;10488;50.846;4.078;2022-12-18T01:57:48;54.63;;;24.93;;
20657;SDS011;10488;50.846;4.078;2022-12-18T02:00:18;48.43;;;23.70;;
20657;SDS011;10488;50.846;4.078;2022-12-18T02:02:45;47.90;;;25.23;;
20657;SDS011;10488;50.846;4.078;2022-12-18T02:05:12;54.63;;;25.03;;
20657;SDS011;10488;50.846;4.078;2022-12-18T02:10:58;53.47;;;24.53;;
20657;SDS011;10488;50.846;4.078;2022-12-18T02:13:46;55.40;;;26.13;;
20657;SDS011;10488;50.846;4.078;2022-12-18T02:19:37;48.23;;;23.80;;
20657;SDS011;10488;50.846;4.078;2022-12-18T02:27:31;51.43;;;25.43;;
20657;SDS011;10488;50.846;4.078;2022-12-18T02:29:59;46.23;;;24.00;;
20657;SDS011;10488;50.846;4.078;2022-12-18T02:32:32;45.53;;;23.03;;
20657;SDS011;10488;50.846;4.078;2022-12-18T02:35:03;41.13;;;21.43;;
20657;SDS011;10488;50.846;4.078;2022-12-18T02:37:31;46.60;;;21.77;;
20657;SDS011;10488;50.846;4.078;2022-12-18T02:39:58;50.40;;;24.10;;
20657;SDS011;10488;50.846;4.078;2022-12-18T02:42:25;45.63;;;21.97;;
20657;SDS011;10488;50.846;4.078;2022-12-18T02:44:54;38.70;;;20.73;;
20657;SDS011;10488;50.846;4.078;2022-12-18T02:47:24;42.63;;;20.20;;
20657;SDS011;10488;50.846;4.078;2022-12-18T02:56:09;43.87;;;20.90;;
20657;SDS011;10488;50.846;4.078;2022-12-18T02:59:12;41.17;;;19.77;;
20657;SDS011;10488;50.846;4.078;2022-12-18T03:04:17;38.87;;;19.50;;
20657;SDS011;10488;50.846;4.078;2022-12-18T03:07:05;42.63;;;19.97;;
20657;SDS011;10488;50.846;4.078;2022-12-18T03:09:38;45.67;;;21.50;;
20657;SDS011;10488;50.846;4.078;2022-12-18T03:12:15;41.63;;;20.67;;
20657;SDS011;10488;50.846;4.078;2022-12-18T03:15:01;42.77;;;20.63;;
20657;SDS011;10488;50.846;4.078;2022-12-18T03:17:27;41.80;;;20.73;;
20657;SDS011;10488;50.846;4.078;2022-12-18T03:19:57;39.20;;;20.07;;
20657;SDS011;10488;50.846;4.078;2022-12-18T03:22:27;39.63;;;20.73;;
20657;SDS011;10488;50.846;4.078;2022-12-18T03:24:57;43.90;;;20.30;;
20657;SDS011;10488;50.846;4.078;2022-12-18T03:27:26;43.67;;;20.67;;
20657;SDS011;10488;50.846;4.078;2022-12-18T03:29:56;42.10;;;19.80;;
20657;SDS011;10488;50.846;4.078;2022-12-18T03:32:43;35.67;;;18.63;;
20657;SDS011;10488;50.846;4.078;2022-12-18T03:35:10;35.87;;;18.93;;
20657;SDS011;10488;50.846;4.078;2022-12-18T03:37:38;35.50;;;18.70;;
20657;SDS011;10488;50.846;4.078;2022-12-18T03:40:04;38.90;;;19.17;;
20657;SDS011;10488;50.846;4.078;2022-12-18T03:45:19;36.17;;;17.60;;
20657;SDS011;10488;50.846;4.078;2022-12-18T03:48:01;35.10;;;17.80;;
20657;SDS011;10488;50.846;4.078;2022-12-18T03:53:44;39.27;;;20.23;;
20657;SDS011;10488;50.846;4.078;2022-12-18T03:56:17;39.13;;;19.10;;
20657;SDS011;10488;50.846;4.078;2022-12-18T03:58:46;36.73;;;18.53;;
20657;SDS011;10488;50.846;4.078;2022-12-18T04:01:14;36.90;;;18.10;;
20657;SDS011;10488;50.846;4.078;2022-12-18T04:03:41;35.27;;;17.30;;
20657;SDS011;10488;50.846;4.078;2022-12-18T04:06:09;30.20;;;16.57;;
20657;SDS011;10488;50.846;4.078;2022-12-18T04:08:36;34.67;;;17.23;;
20657;SDS011;10488;50.846;4.078;2022-12-18T04:11:02;32.30;;;16.50;;
20657;SDS011;10488;50.846;4.078;2022-12-18T04:13:28;37.13;;;17.57;;
20657;SDS011;10488;50.846;4.078;2022-12-18T04:15:57;37.17;;;17.57;;
20657;SDS011;10488;50.846;4.078;2022-12-18T04:18:23;32.10;;;17.17;;
20657;SDS011;10488;50.846;4.078;2022-12-18T04:20:49;31.47;;;16.50;;
20657;SDS011;10488;50.846;4.078;2022-12-18T04:23:15;32.97;;;17.00;;
20657;SDS011;10488;50.846;4.078;2022-12-18T04:25:41;38.30;;;17.43;;
20657;SDS011;10488;50.846;4.078;2022-12-18T04:28:07;29.67;;;16.20;;
20657;SDS011;10488;50.846;4.078;2022-12-18T04:30:32;35.17;;;17.47;;
20657;SDS011;10488;50.846;4.078;2022-12-18T04:32:58;35.10;;;16.87;;
20657;SDS011;10488;50.846;4.078;2022-12-18T04:35:24;36.47;;;17.00;;
20657;SDS011;10488;50.846;4.078;2022-12-18T04:37:50;30.60;;;16.60;;
20657;SDS011;10488;50.846;4.078;2022-12-18T04:40:15;35.50;;;16.70;;
20657;SDS011;10488;50.846;4.078;2022-12-18T04:42:41;37.57;;;17.30;;
20657;SDS011;10488;50.846;4.078;2022-12-18T04:45:07;36.57;;;16.93;;
20657;SDS011;10488;50.846;4.078;2022-12-18T04:47:33;31.87;;;15.37;;
20657;SDS011;10488;50.846;4.078;2022-12-18T04:49:58;34.60;;;16.83;;
20657;SDS011;10488;50.846;4.078;2022-12-18T04:52:24;32.03;;;16.20;;
20657;SDS011;10488;50.846;4.078;2022-12-18T04:54:50;31.90;;;16.07;;
20657;SDS011;10488;50.846;4.078;2022-12-18T04:57:16;31.53;;;15.83;;
20657;SDS011;10488;50.846;4.078;2022-12-18T04:59:44;30.93;;;16.13;;
20657;SDS011;10488;50.846;4.078;2022-12-18T05:02:10;31.80;;;16.33;;
20657;SDS011;10488;50.846;4.078;2022-12-18T05:04:36;28.47;;;15.70;;
20657;SDS011;10488;50.846;4.078;2022-12-18T05:07:02;30.57;;;14.57;;
20657;SDS011;10488;50.846;4.078;2022-12-18T05:09:28;29.87;;;14.60;;
20657;SDS011;10488;50.846;4.078;2022-12-18T05:11:54;21.70;;;12.93;;
20657;SDS011;10488;50.846;4.078;2022-12-18T05:14:20;25.77;;;13.03;;
20657;SDS011;10488;50.846;4.078;2022-12-18T05:16:45;25.33;;;12.83;;
20657;SDS011;10488;50.846;4.078;2022-12-18T05:19:11;23.70;;;13.30;;
20657;SDS011;10488;50.846;4.078;2022-12-18T05:21:36;25.00;;;12.53;;
20657;SDS011;10488;50.846;4.078;2022-12-18T05:24:02;24.13;;;13.57;;
20657;SDS011;10488;50.846;4.078;2022-12-18T05:26:28;24.80;;;13.20;;
20657;SDS011;10488;50.846;4.078;2022-12-18T05:28:54;24.57;;;13.17;;
20657;SDS011;10488;50.846;4.078;2022-12-18T05:31:19;23.93;;;12.97;;
20657;SDS011;10488;50.846;4.078;2022-12-18T05:33:45;25.93;;;12.33;;
20657;SDS011;10488;50.846;4.078;2022-12-18T05:36:10;24.13;;;13.03;;
20657;SDS011;10488;50.846;4.078;2022-12-18T05:38:37;26.03;;;13.30;;
20657;SDS011;10488;50.846;4.078;2022-12-18T05:41:04;23.40;;;12.53;;
20657;SDS011;10488;50.846;4.078;2022-12-18T05:43:30;26.40;;;13.10;;
20657;SDS011;10488;50.846;4.078;2022-12-18T05:45:56;24.77;;;11.90;;
20657;SDS011;10488;50.846;4.078;2022-12-18T05:48:22;23.47;;;12.30;;
20657;SDS011;10488;50.846;4.078;2022-12-18T05:50:49;25.10;;;13.20;;
20657;SDS011;10488;50.846;4.078;2022-12-18T05:53:16;24.20;;;12.40;;
20657;SDS011;10488;50.846;4.078;2022-12-18T05:55:43;25.83;;;12.90;;
20657;SDS011;10488;50.846;4.078;2022-12-18T05:58:10;25.00;;;12.53;;
20657;SDS011;10488;50.846;4.078;2022-12-18T06:00:38;25.87;;;12.07;;
20657;SDS011;10488;50.846;4.078;2022-12-18T06:03:08;21.27;;;12.67;;
20657;SDS011;10488;50.846;4.078;2022-12-18T06:05:39;23.87;;;13.70;;
20657;SDS011;10488;50.846;4.078;2022-12-18T06:08:06;23.47;;;13.30;;
20657;SDS011;10488;50.846;4.078;2022-12-18T06:10:32;27.30;;;13.90;;
20657;SDS011;10488;50.846;4.078;2022-12-18T06:12:58;25.63;;;14.30;;
20657;SDS011;10488;50.846;4.078;2022-12-18T06:15:24;23.57;;;12.27;;
20657;SDS011;10488;50.846;4.078;2022-12-18T06:17:49;26.20;;;13.50;;
20657;SDS011;10488;50.846;4.078;2022-12-18T06:20:15;22.80;;;12.80;;
20657;SDS011;10488;50.846;4.078;2022-12-18T06:22:41;27.60;;;12.70;;
20657;SDS011;10488;50.846;4.078;2022-12-18T06:25:07;25.50;;;12.63;;
20657;SDS011;10488;50.846;4.078;2022-12-18T06:27:33;26.37;;;12.00;;
20657;SDS011;10488;50.846;4.078;2022-12-18T06:29:59;22.67;;;12.30;;
20657;SDS011;10488;50.846;4.078;2022-12-18T06:32:25;23.67;;;11.97;;
20657;SDS011;10488;50.846;4.078;2022-12-18T06:34:51;25.63;;;13.03;;
20657;SDS011;10488;50.846;4.078;2022-12-18T06:37:18;23.80;;;12.10;;
20657;SDS011;10488;50.846;4.078;2022-12-18T06:39:43;24.33;;;12.10;;
20657;SDS011;10488;50.846;4.078;2022-12-18T06:42:09;19.73;;;11.40;;
20657;SDS011;10488;50.846;4.078;2022-12-18T06:44:34;23.67;;;12.00;;
20657;SDS011;10488;50.846;4.078;2022-12-18T06:47:00;21.17;;;11.57;;
20657;SDS011;10488;50.846;4.078;2022-12-18T06:49:26;29.80;;;12.67;;
20657;SDS011;10488;50.846;4.078;2022-12-18T06:51:51;23.60;;;11.87;;
20657;SDS011;10488;50.846;4.078;2022-12-18T06:54:17;21.70;;;12.73;;
20657;SDS011;10488;50.846;4.078;2022-12-18T06:56:44;24.73;;;12.13;;
20657;SDS011;10488;50.846;4.078;2022-12-18T06:59:12;23.63;;;12.43;;
20657;SDS011;10488;50.846;4.078;2022-12-18T07:01:49;23.23;;;11.93;;
20657;SDS011;10488;50.846;4.078;2022-12-18T07:04:39;21.27;;;12.07;;
20657;SDS011;10488;50.846;4.078;2022-12-18T07:07:04;18.60;;;11.07;;
20657;SDS011;10488;50.846;4.078;2022-12-18T07:09:30;23.47;;;11.70;;
20657;SDS011;10488;50.846;4.078;2022-12-18T07:11:56;23.90;;;12.13;;
20657;SDS011;10488;50.846;4.078;2022-12-18T07:14:21;20.20;;;11.20;;
20657;SDS011;10488;50.846;4.078;2022-12-18T07:16:47;24.63;;;12.67;;
20657;SDS011;10488;50.846;4.078;2022-12-18T07:19:12;25.50;;;12.40;;
20657;SDS011;10488;50.846;4.078;2022-12-18T07:21:38;19.03;;;11.07;;
20657;SDS011;10488;50.846;4.078;2022-12-18T07:24:04;22.00;;;11.47;;
20657;SDS011;10488;50.846;4.078;2022-12-18T07:26:30;23.73;;;11.57;;
20657;SDS011;10488;50.846;4.078;2022-12-18T07:28:56;20.87;;;11.43;;
20657;SDS011;10488;50.846;4.078;2022-12-18T07:31:22;22.57;;;11.60;;
20657;SDS011;10488;50.846;4.078;2022-12-18T07:33:49;20.93;;;11.37;;
20657;SDS011;10488;50.846;4.078;2022-12-18T07:36:15;21.23;;;10.60;;
20657;SDS011;10488;50.846;4.078;2022-12-18T07:38:41;22.50;;;11.70;;
20657;SDS011;10488;50.846;4.078;2022-12-18T07:41:09;22.80;;;13.27;;
20657;SDS011;10488;50.846;4.078;2022-12-18T07:43:36;23.33;;;11.67;;
20657;SDS011;10488;50.846;4.078;2022-12-18T07:46:02;24.47;;;12.60;;
20657;SDS011;10488;50.846;4.078;2022-12-18T07:48:28;34.57;;;16.70;;
20657;SDS011;10488;50.846;4.078;2022-12-18T07:50:58;47.70;;;22.13;;
20657;SDS011;10488;50.846;4.078;2022-12-18T07:53:24;27.87;;;16.47;;
20657;SDS011;10488;50.846;4.078;2022-12-18T07:56:00;29.47;;;15.13;;
20657;SDS011;10488;50.846;4.078;2022-12-18T07:58:29;21.47;;;11.80;;
20657;SDS011;10488;50.846;4.078;2022-12-18T08:01:01;24.03;;;11.57;;
20657;SDS011;10488;50.846;4.078;2022-12-18T08:03:29;21.93;;;12.57;;
20657;SDS011;10488;50.846;4.078;2022-12-18T08:05:58;32.30;;;18.53;;
20657;SDS011;10488;50.846;4.078;2022-12-18T08:08:25;39.87;;;22.07;;
20657;SDS011;10488;50.846;4.078;2022-12-18T08:10:50;28.73;;;15.90;;
20657;SDS011;10488;50.846;4.078;2022-12-18T08:13:16;31.30;;;16.93;;
20657;SDS011;10488;50.846;4.078;2022-12-18T08:15:42;21.80;;;12.50;;
20657;SDS011;10488;50.846;4.078;2022-12-18T08:18:07;20.87;;;12.50;;
20657;SDS011;10488;50.846;4.078;2022-12-18T08:20:33;25.40;;;11.30;;
20657;SDS011;10488;50.846;4.078;2022-12-18T08:22:58;20.60;;;12.10;;
20657;SDS011;10488;50.846;4.078;2022-12-18T08:25:24;20.87;;;10.90;;
20657;SDS011;10488;50.846;4.078;2022-12-18T08:27:50;21.03;;;12.50;;
20657;SDS011;10488;50.846;4.078;2022-12-18T08:30:15;22.20;;;11.23;;
20657;SDS011;10488;50.846;4.078;2022-12-18T08:32:41;23.73;;;12.07;;
20657;SDS011;10488;50.846;4.078;2022-12-18T08:35:07;23.03;;;11.50;;
20657;SDS011;10488;50.846;4.078;2022-12-18T08:37:33;24.03;;;12.43;;
20657;SDS011;10488;50.846;4.078;2022-12-18T08:39:59;24.13;;;12.07;;
20657;SDS011;10488;50.846;4.078;2022-12-18T08:42:25;24.33;;;13.33;;
20657;SDS011;10488;50.846;4.078;2022-12-18T08:45:09;22.57;;;11.80;;
20657;SDS011;10488;50.846;4.078;2022-12-18T08:47:35;22.60;;;11.20;;
20657;SDS011;10488;50.846;4.078;2022-12-18T08:50:00;21.17;;;11.23;;
20657;SDS011;10488;50.846;4.078;2022-12-18T08:52:26;22.57;;;11.80;;
20657;SDS011;10488;50.846;4.078;2022-12-18T08:54:53;24.70;;;12.67;;
20657;SDS011;10488;50.846;4.078;2022-12-18T08:57:18;23.47;;;12.80;;
20657;SDS011;10488;50.846;4.078;2022-12-18T08:59:44;25.00;;;14.30;;
20657;SDS011;10488;50.846;4.078;2022-12-18T09:02:10;26.57;;;13.67;;
20657;SDS011;10488;50.846;4.078;2022-12-18T09:04:36;21.33;;;12.40;;
20657;SDS011;10488;50.846;4.078;2022-12-18T09:07:01;28.30;;;15.23;;
20657;SDS011;10488;50.846;4.078;2022-12-18T09:09:27;25.23;;;13.23;;
20657;SDS011;10488;50.846;4.078;2022-12-18T09:11:54;22.33;;;12.53;;
20657;SDS011;10488;50.846;4.078;2022-12-18T09:14:19;28.53;;;14.67;;
20657;SDS011;10488;50.846;4.078;2022-12-18T09:16:45;19.60;;;10.93;;
20657;SDS011;10488;50.846;4.078;2022-12-18T09:19:11;22.50;;;12.60;;
20657;SDS011;10488;50.846;4.078;2022-12-18T09:21:38;20.57;;;11.17;;
20657;SDS011;10488;50.846;4.078;2022-12-18T09:24:06;20.60;;;11.10;;
20657;SDS011;10488;50.846;4.078;2022-12-18T09:26:39;21.90;;;11.60;;
20657;SDS011;10488;50.846;4.078;2022-12-18T09:29:05;15.70;;;10.40;;
20657;SDS011;10488;50.846;4.078;2022-12-18T09:31:32;15.77;;;10.17;;
20657;SDS011;10488;50.846;4.078;2022-12-18T09:33:58;17.27;;;11.07;;
20657;SDS011;10488;50.846;4.078;2022-12-18T09:36:24;20.97;;;11.60;;
20657;SDS011;10488;50.846;4.078;2022-12-18T09:38:50;20.90;;;10.83;;
20657;SDS011;10488;50.846;4.078;2022-12-18T09:44:04;22.03;;;11.77;;
20657;SDS011;10488;50.846;4.078;2022-12-18T09:46:38;20.40;;;11.40;;
20657;SDS011;10488;50.846;4.078;2022-12-18T09:49:16;21.77;;;12.63;;
20657;SDS011;10488;50.846;4.078;2022-12-18T09:51:45;21.37;;;11.77;;
20657;SDS011;10488;50.846;4.078;2022-12-18T09:54:20;23.07;;;11.53;;
20657;SDS011;10488;50.846;4.078;2022-12-18T09:56:49;20.73;;;11.83;;
20657;SDS011;10488;50.846;4.078;2022-12-18T09:59:24;19.93;;;11.47;;
20657;SDS011;10488;50.846;4.078;2022-12-18T10:01:52;19.03;;;11.53;;
20657;SDS011;10488;50.846;4.078;2022-12-18T10:04:18;23.80;;;11.97;;
20657;SDS011;10488;50.846;4.078;2022-12-18T10:06:54;22.63;;;11.70;;
20657;SDS011;10488;50.846;4.078;2022-12-18T10:09:39;18.93;;;11.17;;
20657;SDS011;10488;50.846;4.078;2022-12-18T10:12:24;19.93;;;11.40;;
20657;SDS011;10488;50.846;4.078;2022-12-18T10:20:47;22.53;;;12.07;;
20657;SDS011;10488;50.846;4.078;2022-12-18T10:28:25;19.80;;;11.80;;
20657;SDS011;10488;50.846;4.078;2022-12-18T10:30:51;20.93;;;12.10;;
20657;SDS011;10488;50.846;4.078;2022-12-18T10:33:20;22.37;;;11.77;;
20657;SDS011;10488;50.846;4.078;2022-12-18T10:35:48;20.17;;;11.93;;
20657;SDS011;10488;50.846;4.078;2022-12-18T10:43:29;24.13;;;12.47;;
20657;SDS011;10488;50.846;4.078;2022-12-18T10:48:56;24.90;;;12.33;;
20657;SDS011;10488;50.846;4.078;2022-12-18T10:51:29;26.87;;;13.83;;
20657;SDS011;10488;50.846;4.078;2022-12-18T10:56:44;18.60;;;11.50;;
20657;SDS011;10488;50.846;4.078;2022-12-18T10:59:11;21.33;;;11.77;;
20657;SDS011;10488;50.846;4.078;2022-12-18T11:04:18;22.07;;;12.50;;
20657;SDS011;10488;50.846;4.078;2022-12-18T11:06:53;24.83;;;13.20;;
20657;SDS011;10488;50.846;4.078;2022-12-18T11:09:29;21.53;;;12.23;;
20657;SDS011;10488;50.846;4.078;2022-12-18T11:17:20;19.63;;;12.60;;
20657;SDS011;10488;50.846;4.078;2022-12-18T11:19:52;24.70;;;13.57;;
20657;SDS011;10488;50.846;4.078;2022-12-18T11:25:00;26.27;;;13.67;;
20657;SDS011;10488;50.846;4.078;2022-12-18T11:27:28;25.87;;;13.90;;
20657;SDS011;10488;50.846;4.078;2022-12-18T11:30:07;22.63;;;13.33;;
20657;SDS011;10488;50.846;4.078;2022-12-18T11:32:43;21.57;;;13.63;;
20657;SDS011;10488;50.846;4.078;2022-12-18T11:35:17;21.63;;;12.97;;
20657;SDS011;10488;50.846;4.078;2022-12-18T11:37:59;28.40;;;14.23;;
20657;SDS011;10488;50.846;4.078;2022-12-18T11:40:35;21.20;;;12.80;;
20657;SDS011;10488;50.846;4.078;2022-12-18T11:43:45;23.57;;;14.13;;
20657;SDS011;10488;50.846;4.078;2022-12-18T11:46:09;24.87;;;14.13;;
20657;SDS011;10488;50.846;4.078;2022-12-18T11:48:43;22.93;;;13.80;;
20657;SDS011;10488;50.846;4.078;2022-12-18T11:51:14;20.47;;;11.93;;
20657;SDS011;10488;50.846;4.078;2022-12-18T11:53:47;22.00;;;12.07;;
20657;SDS011;10488;50.846;4.078;2022-12-18T11:58:55;22.17;;;11.33;;
20657;SDS011;10488;50.846;4.078;2022-12-18T12:07:59;24.30;;;12.70;;
20657;SDS011;10488;50.846;4.078;2022-12-18T12:10:20;19.87;;;11.83;;
20657;SDS011;10488;50.846;4.078;2022-12-18T12:14:12;24.00;;;13.43;;
20657;SDS011;10488;50.846;4.078;2022-12-18T12:40:23;28.47;;;14.53;;
20657;SDS011;10488;50.846;4.078;2022-12-18T12:42:54;27.70;;;14.43;;
20657;SDS011;10488;50.846;4.078;2022-12-18T12:46:12;29.57;;;15.33;;
20657;SDS011;10488;50.846;4.078;2022-12-18T12:48:48;27.27;;;15.10;;
20657;SDS011;10488;50.846;4.078;2022-12-18T12:51:26;27.47;;;14.27;;
20657;SDS011;10488;50.846;4.078;2022-12-18T12:53:54;26.23;;;14.27;;
20657;SDS011;10488;50.846;4.078;2022-12-18T12:56:22;25.67;;;14.63;;
20657;SDS011;10488;50.846;4.078;2022-12-18T12:59:04;30.10;;;15.73;;
20657;SDS011;10488;50.846;4.078;2022-12-18T13:07:10;31.93;;;17.40;;
20657;SDS011;10488;50.846;4.078;2022-12-18T13:18:10;33.10;;;16.67;;
20657;SDS011;10488;50.846;4.078;2022-12-18T13:20:47;32.50;;;16.67;;
20657;SDS011;10488;50.846;4.078;2022-12-18T13:23:32;27.93;;;16.03;;
20657;SDS011;10488;50.846;4.078;2022-12-18T13:36:11;33.63;;;17.83;;
20657;SDS011;10488;50.846;4.078;2022-12-18T13:41:38;32.53;;;17.80;;
20657;SDS011;10488;50.846;4.078;2022-12-18T13:44:12;30.33;;;16.70;;
20657;SDS011;10488;50.846;4.078;2022-12-18T13:46:48;33.07;;;17.57;;
20657;SDS011;10488;50.846;4.078;2022-12-18T13:49:20;33.30;;;17.17;;
20657;SDS011;10488;50.846;4.078;2022-12-18T13:51:50;35.10;;;16.93;;
20657;SDS011;10488;50.846;4.078;2022-12-18T13:54:34;30.63;;;17.53;;
20657;SDS011;10488;50.846;4.078;2022-12-18T14:02:54;34.97;;;18.70;;
20657;SDS011;10488;50.846;4.078;2022-12-18T14:05:30;34.33;;;18.67;;
20657;SDS011;10488;50.846;4.078;2022-12-18T14:08:15;36.33;;;19.67;;
20657;SDS011;10488;50.846;4.078;2022-12-18T14:10:42;35.17;;;19.07;;
20657;SDS011;10488;50.846;4.078;2022-12-18T14:13:11;38.37;;;19.03;;
20657;SDS011;10488;50.846;4.078;2022-12-18T14:15:46;33.97;;;17.23;;
20657;SDS011;10488;50.846;4.078;2022-12-18T14:20:39;36.03;;;17.83;;
20657;SDS011;10488;50.846;4.078;2022-12-18T14:26:00;34.23;;;17.93;;
20657;SDS011;10488;50.846;4.078;2022-12-18T14:28:28;38.80;;;19.80;;
20657;SDS011;10488;50.846;4.078;2022-12-18T14:30:54;40.83;;;19.30;;
20657;SDS011;10488;50.846;4.078;2022-12-18T14:33:22;34.40;;;18.07;;
20657;SDS011;10488;50.846;4.078;2022-12-18T14:36:00;40.53;;;18.77;;
20657;SDS011;10488;50.846;4.078;2022-12-18T14:38:31;40.20;;;19.50;;
20657;SDS011;10488;50.846;4.078;2022-12-18T14:41:02;36.17;;;17.77;;
20657;SDS011;10488;50.846;4.078;2022-12-18T14:43:29;34.10;;;17.93;;
20657;SDS011;10488;50.846;4.078;2022-12-18T14:46:04;36.73;;;18.77;;
20657;SDS011;10488;50.846;4.078;2022-12-18T14:48:49;38.50;;;19.50;;
20657;SDS011;10488;50.846;4.078;2022-12-18T14:51:17;36.90;;;19.47;;
20657;SDS011;10488;50.846;4.078;2022-12-18T14:53:54;38.77;;;19.70;;
20657;SDS011;10488;50.846;4.078;2022-12-18T14:56:22;40.73;;;18.43;;
20657;SDS011;10488;50.846;4.078;2022-12-18T14:58:57;36.33;;;19.33;;
20657;SDS011;10488;50.846;4.078;2022-12-18T15:03:57;39.97;;;20.50;;
20657;SDS011;10488;50.846;4.078;2022-12-18T15:06:26;40.90;;;19.80;;
20657;SDS011;10488;50.846;4.078;2022-12-18T15:08:55;38.17;;;19.37;;
20657;SDS011;10488;50.846;4.078;2022-12-18T15:13:57;46.23;;;20.10;;
20657;SDS011;10488;50.846;4.078;2022-12-18T15:16:24;38.73;;;20.17;;
20657;SDS011;10488;50.846;4.078;2022-12-18T15:18:50;37.63;;;18.43;;
20657;SDS011;10488;50.846;4.078;2022-12-18T15:21:17;39.30;;;19.30;;
20657;SDS011;10488;50.846;4.078;2022-12-18T15:26:10;37.23;;;19.33;;
20657;SDS011;10488;50.846;4.078;2022-12-18T15:28:38;42.60;;;20.60;;
20657;SDS011;10488;50.846;4.078;2022-12-18T15:34:00;39.20;;;19.70;;
20657;SDS011;10488;50.846;4.078;2022-12-18T15:36:30;36.73;;;18.10;;
20657;SDS011;10488;50.846;4.078;2022-12-18T15:38:56;39.40;;;19.30;;
20657;SDS011;10488;50.846;4.078;2022-12-18T15:41:22;31.17;;;16.63;;
20657;SDS011;10488;50.846;4.078;2022-12-18T15:43:50;39.13;;;18.57;;
20657;SDS011;10488;50.846;4.078;2022-12-18T15:46:18;37.20;;;17.93;;
20657;SDS011;10488;50.846;4.078;2022-12-18T15:48:46;33.67;;;17.47;;
20657;SDS011;10488;50.846;4.078;2022-12-18T15:51:15;35.13;;;17.90;;
20657;SDS011;10488;50.846;4.078;2022-12-18T15:53:47;35.47;;;17.80;;
20657;SDS011;10488;50.846;4.078;2022-12-18T15:56:15;37.27;;;19.13;;
20657;SDS011;10488;50.846;4.078;2022-12-18T15:59:00;39.70;;;19.50;;
20657;SDS011;10488;50.846;4.078;2022-12-18T16:01:27;35.80;;;16.50;;
20657;SDS011;10488;50.846;4.078;2022-12-18T16:03:54;37.33;;;16.97;;
20657;SDS011;10488;50.846;4.078;2022-12-18T16:06:20;35.67;;;18.40;;
20657;SDS011;10488;50.846;4.078;2022-12-18T16:08:47;39.50;;;18.83;;
20657;SDS011;10488;50.846;4.078;2022-12-18T16:11:23;37.10;;;18.93;;
20657;SDS011;10488;50.846;4.078;2022-12-18T16:16:39;33.37;;;17.23;;
20657;SDS011;10488;50.846;4.078;2022-12-18T16:19:04;36.43;;;18.27;;
20657;SDS011;10488;50.846;4.078;2022-12-18T16:21:30;39.13;;;17.83;;
20657;SDS011;10488;50.846;4.078;2022-12-18T16:23:56;40.33;;;19.03;;
20657;SDS011;10488;50.846;4.078;2022-12-18T16:26:21;35.33;;;17.43;;
20657;SDS011;10488;50.846;4.078;2022-12-18T16:28:47;42.37;;;19.87;;
20657;SDS011;10488;50.846;4.078;2022-12-18T16:31:12;39.07;;;17.97;;
20657;SDS011;10488;50.846;4.078;2022-12-18T16:33:38;37.73;;;18.93;;
20657;SDS011;10488;50.846;4.078;2022-12-18T16:36:04;38.23;;;18.47;;
20657;SDS011;10488;50.846;4.078;2022-12-18T16:38:29;37.07;;;18.50;;
20657;SDS011;10488;50.846;4.078;2022-12-18T16:40:55;36.40;;;17.63;;
20657;SDS011;10488;50.846;4.078;2022-12-18T16:43:39;36.30;;;17.97;;
20657;SDS011;10488;50.846;4.078;2022-12-18T16:46:05;36.93;;;18.40;;
20657;SDS011;10488;50.846;4.078;2022-12-18T16:48:31;36.20;;;17.73;;
20657;SDS011;10488;50.846;4.078;2022-12-18T16:51:03;31.07;;;16.17;;
20657;SDS011;10488;50.846;4.078;2022-12-18T16:53:30;33.63;;;17.37;;
20657;SDS011;10488;50.846;4.078;2022-12-18T16:55:57;35.07;;;17.20;;
20657;SDS011;10488;50.846;4.078;2022-12-18T16:58:22;31.83;;;16.13;;
20657;SDS011;10488;50.846;4.078;2022-12-18T17:00:48;39.23;;;18.03;;
20657;SDS011;10488;50.846;4.078;2022-12-18T17:03:14;30.90;;;17.20;;
20657;SDS011;10488;50.846;4.078;2022-12-18T17:05:39;35.90;;;18.57;;